Time;durP1;ratioP1;P1;durP2;ratioP2;P2;SDS_P1;SDS_P2;PMS_P1;PMS_P2;Temp;Humidity;BMP_temperature;BMP_pressure;BME280_temperature;BME280_humidity;BME280_pressure;Samples;Min_cycle;Max_cycle;Signal;HPM_P1;HPM_P2
2022/08/28 00:01:50;;;;;;;12.30;3.70;;;;;;;16.37;72.57;101760.09;4788023;30;20050;-62
2022/08/28 00:04:15;;;;;;;9.02;3.83;;;;;;;16.39;73.19;101778.56;4787492;30;20369;-60
2022/08/28 00:06:41;;;;;;;11.15;3.92;;;;;;;16.38;73.18;101772.41;4787614;30;20406;-60
2022/08/28 00:09:06;;;;;;;9.82;3.88;;;;;;;16.39;73.54;101779.44;4787532;30;20054;-62
2022/08/28 00:11:36;;;;;;;8.98;4.00;;;;;;;16.32;73.43;101785.75;4787560;30;20188;-62
2022/08/28 00:14:02;;;;;;;8.25;3.97;;;;;;;16.26;73.53;101783.25;4787636;30;20042;-63
2022/08/28 00:16:29;;;;;;;11.48;3.67;;;;;;;16.20;74.33;101786.91;4787460;30;20465;-60
2022/08/28 00:18:54;;;;;;;11.27;4.22;;;;;;;16.21;74.11;101785.13;4787577;30;20054;-61
2022/08/28 00:21:20;;;;;;;12.95;3.97;;;;;;;16.17;74.47;101789.59;4787345;30;20047;-61
2022/08/28 00:23:45;;;;;;;10.95;4.55;;;;;;;16.05;74.58;101771.38;4787441;30;20043;-60
2022/08/28 00:27:51;;;;;;;10.80;4.80;;;;;;;16.11;75.24;101781.78;4787140;30;20039;-61
2022/08/28 00:28:56;;;;;;;12.82;4.35;;;;;;;16.04;74.95;101772.28;4786966;30;20375;-61
2022/08/28 00:31:22;;;;;;;12.68;4.53;;;;;;;15.92;76.07;101780.47;4787421;30;20042;-60
2022/08/28 00:33:47;;;;;;;9.82;4.30;;;;;;;15.88;76.04;101784.06;4787335;30;20047;-61
2022/08/28 00:36:13;;;;;;;9.85;4.35;;;;;;;15.90;76.03;101790.19;4787302;30;20050;-60
2022/08/28 00:38:38;;;;;;;11.57;4.50;;;;;;;15.86;76.24;101791.13;4787140;30;20490;-61
2022/08/28 00:41:03;;;;;;;10.43;4.53;;;;;;;15.82;75.89;101794.72;4787138;30;20039;-60
2022/08/28 00:43:40;;;;;;;11.10;4.55;;;;;;;15.79;76.36;101795.66;4786999;30;20473;-59
2022/08/28 00:46:12;;;;;;;10.38;4.35;;;;;;;15.76;76.52;101792.25;4786572;29;20114;-61
2022/08/28 00:48:37;;;;;;;14.93;4.78;;;;;;;15.62;76.99;101788.06;4786823;30;20105;-61
2022/08/28 00:53:48;;;;;;;10.18;4.40;;;;;;;15.61;77.63;101796.00;4786915;30;20132;-63
2022/08/28 00:56:17;;;;;;;11.68;4.35;;;;;;;15.53;77.75;101795.28;4786989;30;20061;-60
2022/08/28 00:58:44;;;;;;;11.90;4.40;;;;;;;15.54;77.92;101795.25;4786915;30;20043;-62
2022/08/28 01:01:12;;;;;;;12.13;4.55;;;;;;;15.44;78.38;101798.94;4786860;30;20042;-62
2022/08/28 01:03:37;;;;;;;12.98;4.93;;;;;;;15.30;78.27;101782.50;4786494;30;20069;-63
2022/08/28 01:06:03;;;;;;;10.38;4.65;;;;;;;15.36;78.43;101797.34;4786704;30;20505;-60
2022/08/28 01:08:30;;;;;;;11.18;4.90;;;;;;;15.39;78.70;101806.09;4786500;30;20132;-61
2022/08/28 01:10:58;;;;;;;10.52;4.35;;;;;;;15.33;78.91;101812.31;4786788;30;20039;-60
2022/08/28 01:13:25;;;;;;;9.23;4.53;;;;;;;15.28;79.44;101810.66;4786824;30;20515;-61
2022/08/28 01:15:51;;;;;;;11.45;5.22;;;;;;;15.29;79.32;101809.75;4786801;30;20047;-61
2022/08/28 01:18:18;;;;;;;10.85;4.22;;;;;;;15.27;79.53;101808.91;4786592;30;20035;-62
2022/08/28 01:20:58;;;;;;;13.43;4.95;;;;;;;15.28;79.28;101808.00;4786508;30;20381;-62
2022/08/28 01:23:50;;;;;;;7.30;4.25;;;;;;;15.24;79.11;101799.28;4786612;30;20046;-62
2022/08/28 01:26:16;;;;;;;9.85;4.18;;;;;;;15.20;79.79;101799.38;4786517;30;20058;-62
2022/08/28 01:28:42;;;;;;;14.30;4.93;;;;;;;15.21;79.97;101803.75;4786474;30;20051;-60
2022/08/28 01:31:12;;;;;;;13.88;4.82;;;;;;;15.14;80.15;101804.75;4786191;30;20039;-60
2022/08/28 01:33:40;;;;;;;13.98;4.95;;;;;;;15.16;80.27;101803.84;4786446;30;20461;-62
2022/08/28 01:36:06;;;;;;;11.77;4.65;;;;;;;15.18;80.54;101814.34;4786465;30;20548;-61
2022/08/28 01:38:31;;;;;;;11.43;5.07;;;;;;;15.15;80.46;101809.13;4786346;30;20088;-62
2022/08/28 01:40:56;;;;;;;11.63;4.80;;;;;;;15.17;80.57;101813.50;4786439;30;20074;-61
2022/08/28 01:43:25;;;;;;;12.80;4.95;;;;;;;15.21;80.50;101812.53;4786453;30;20103;-64
2022/08/28 01:45:54;;;;;;;12.32;4.47;;;;;;;15.24;80.56;101822.16;4786377;30;20051;-59
2022/08/28 01:48:23;;;;;;;16.40;5.10;;;;;;;15.21;80.38;101815.19;4786282;30;20046;-60
2022/08/28 01:50:49;;;;;;;14.10;4.50;;;;;;;15.20;80.48;101825.75;4786541;30;20070;-60
2022/08/28 01:53:18;;;;;;;9.90;4.57;;;;;;;15.24;80.89;101820.38;4786256;30;20078;-62
2022/08/28 01:55:43;;;;;;;17.67;5.07;;;;;;;15.21;80.81;101814.31;4786390;29;20074;-62
2022/08/28 01:58:10;;;;;;;11.43;4.63;;;;;;;15.26;80.91;101818.59;4788843;30;20108;-61
2022/08/28 02:00:35;;;;;;;11.80;4.80;;;;;;;15.15;81.16;101814.41;4789904;30;20043;-62
2022/08/28 02:03:01;;;;;;;11.10;4.95;;;;;;;15.11;81.40;101817.97;4790003;30;20046;-59
2022/08/28 02:05:31;;;;;;;11.55;4.80;;;;;;;15.14;81.52;101820.56;4789990;30;20536;-59
2022/08/28 02:07:58;;;;;;;11.25;4.28;;;;;;;15.10;81.61;101822.38;4789783;30;20134;-61
2022/08/28 02:10:26;;;;;;;13.48;4.85;;;;;;;15.13;81.70;101824.09;4789858;30;20126;-60
2022/08/28 02:12:54;;;;;;;9.40;4.10;;;;;;;15.01;81.88;101816.41;4789518;30;20137;-62
2022/08/28 02:15:20;;;;;;;10.73;4.55;;;;;;;15.01;81.64;101821.69;4789594;30;20035;-63
2022/08/28 02:17:45;;;;;;;16.67;5.15;;;;;;;15.01;82.54;101827.81;4789782;30;20757;-62
2022/08/28 02:20:10;;;;;;;12.25;5.20;;;;;;;14.95;82.46;101825.28;4789660;30;20114;-61
2022/08/28 02:22:35;;;;;;;13.13;4.43;;;;;;;14.94;82.71;101829.66;4789577;30;20055;-60
2022/08/28 02:25:03;;;;;;;10.60;4.57;;;;;;;14.93;82.74;101827.06;4789113;30;20039;-62
2022/08/28 02:27:28;;;;;;;8.23;4.57;;;;;;;14.85;83.07;101832.47;4789364;30;20046;-62
2022/08/28 02:29:54;;;;;;;10.77;4.97;;;;;;;14.86;83.17;101828.94;4789378;30;20039;-60
2022/08/28 02:32:19;;;;;;;12.27;4.50;;;;;;;14.80;83.55;101839.56;4789367;30;20173;-61
2022/08/28 02:34:45;;;;;;;11.70;4.70;;;;;;;14.80;83.45;101831.66;4789446;30;20043;-61
2022/08/28 02:37:12;;;;;;;11.05;4.50;;;;;;;14.77;83.68;101838.72;4788859;30;20488;-61
2022/08/28 02:39:38;;;;;;;12.65;4.60;;;;;;;14.72;84.15;101838.78;4789283;30;20519;-61
2022/08/28 02:42:04;;;;;;;12.35;4.53;;;;;;;14.68;84.24;101846.78;4789100;30;20122;-62
2022/08/28 02:44:29;;;;;;;13.65;4.68;;;;;;;14.70;84.18;101845.00;4789238;30;20114;-62
2022/08/28 02:46:54;;;;;;;14.25;4.75;;;;;;;14.68;84.15;101842.38;4789235;30;20035;-64
2022/08/28 02:49:21;;;;;;;13.32;4.80;;;;;;;14.70;83.68;101839.72;4789017;30;20472;-63
2022/08/28 02:51:47;;;;;;;13.18;4.40;;;;;;;14.58;84.44;101832.84;4788849;30;20407;-62
2022/08/28 02:54:12;;;;;;;11.40;4.60;;;;;;;14.52;84.57;101836.47;4788617;29;20055;-60
2022/08/28 02:56:37;;;;;;;13.65;5.20;;;;;;;14.46;84.76;101836.53;4788818;30;20063;-61
2022/08/28 02:59:03;;;;;;;11.30;4.85;;;;;;;14.49;85.02;101836.50;4789114;30;20043;-63
2022/08/28 03:01:28;;;;;;;9.88;4.38;;;;;;;14.35;85.32;101821.75;4788925;30;20176;-62
2022/08/28 03:03:53;;;;;;;11.23;4.78;;;;;;;14.40;85.22;101833.97;4788924;30;20111;-61
2022/08/28 03:06:19;;;;;;;10.63;4.78;;;;;;;14.39;85.72;101834.81;4788998;30;20043;-60
2022/08/28 03:08:44;;;;;;;9.75;4.70;;;;;;;14.35;85.77;101834.91;4788332;29;20043;-60
2022/08/28 03:11:10;;;;;;;10.25;4.65;;;;;;;14.28;86.02;101845.50;4788514;30;20047;-61
2022/08/28 03:13:36;;;;;;;14.95;4.90;;;;;;;14.21;86.28;101835.94;4788786;30;20071;-61
2022/08/28 03:16:03;;;;;;;9.80;4.47;;;;;;;14.18;86.57;101836.00;4788394;30;20089;-60
2022/08/28 03:18:29;;;;;;;15.90;4.78;;;;;;;14.24;86.30;101837.66;4788840;30;20039;-61
2022/08/28 03:20:55;;;;;;;10.43;4.20;;;;;;;14.28;86.31;101848.16;4788105;30;20059;-61
2022/08/28 03:23:26;;;;;;;10.68;4.80;;;;;;;14.24;86.50;101842.94;4788372;30;20074;-64
2022/08/28 03:26:06;;;;;;;12.98;4.25;;;;;;;14.30;85.92;101842.84;4788512;30;20100;-61
2022/08/28 03:28:37;;;;;;;9.63;4.35;;;;;;;14.35;86.17;101854.22;4788350;30;20089;-61
2022/08/28 03:31:04;;;;;;;11.82;4.55;;;;;;;14.34;86.00;101859.50;4788484;30;20039;-60
2022/08/28 03:33:30;;;;;;;12.10;4.22;;;;;;;14.24;86.45;101856.97;4788342;30;20035;-62
2022/08/28 03:35:55;;;;;;;14.20;4.82;;;;;;;14.16;86.90;101853.56;4788288;30;20049;-60
2022/08/28 03:38:21;;;;;;;11.68;4.40;;;;;;;14.17;86.86;101859.69;4788255;30;20043;-60
2022/08/28 03:40:47;;;;;;;9.20;4.40;;;;;;;14.13;86.90;101856.22;4788195;30;20043;-62
2022/08/28 03:43:15;;;;;;;13.82;5.00;;;;;;;14.16;87.17;101863.22;4788240;30;20047;-64
2022/08/28 03:45:50;;;;;;;12.57;5.20;;;;;;;14.15;86.78;101857.09;4788125;30;20130;-63
2022/08/28 03:48:16;;;;;;;12.95;4.63;;;;;;;14.21;87.07;101864.88;4788034;30;20465;-61
2022/08/28 03:50:41;;;;;;;10.48;4.68;;;;;;;14.20;86.89;101857.88;4787867;30;20067;-61
2022/08/28 03:53:07;;;;;;;10.07;4.78;;;;;;;14.24;86.77;101859.59;4788156;30;20050;-62
2022/08/28 03:55:32;;;;;;;10.45;4.75;;;;;;;14.20;86.92;101867.53;4787960;30;20073;-60
2022/08/28 03:57:57;;;;;;;11.60;4.65;;;;;;;14.09;87.18;101867.69;4787992;30;20043;-59
2022/08/28 04:00:23;;;;;;;8.30;4.03;;;;;;;14.08;87.45;101863.31;4787877;30;20392;-59
2022/08/28 04:02:48;;;;;;;8.93;4.47;;;;;;;14.06;87.48;101859.81;4787844;30;20046;-61
2022/08/28 04:05:13;;;;;;;10.27;4.47;;;;;;;14.01;87.86;101861.66;4787845;30;20046;-60
2022/08/28 04:07:39;;;;;;;9.43;4.40;;;;;;;14.07;87.72;101863.31;4787790;30;20054;-61
2022/08/28 04:10:05;;;;;;;9.50;4.97;;;;;;;14.00;87.85;101864.28;4771753;30;20039;-62
2022/08/28 04:12:30;;;;;;;13.27;4.82;;;;;;;13.97;88.39;101864.31;4787936;30;20185;-60
2022/08/28 04:14:55;;;;;;;13.13;4.57;;;;;;;13.98;88.31;101872.19;4787799;30;20078;-62
2022/08/28 04:17:21;;;;;;;9.50;4.82;;;;;;;13.95;88.50;101864.34;4787629;30;20126;-59
2022/08/28 04:19:46;;;;;;;14.02;4.70;;;;;;;14.01;88.15;101863.41;4786752;29;20046;-59
2022/08/28 04:22:11;;;;;;;12.25;5.30;;;;;;;13.94;88.52;101859.97;4787486;30;20050;-60
2022/08/28 04:24:37;;;;;;;11.30;4.95;;;;;;;13.94;88.29;101867.84;4787466;30;20043;-61
2022/08/28 04:27:02;;;;;;;13.52;4.97;;;;;;;13.88;88.67;101867.91;4787424;30;20512;-61
2022/08/28 04:29:28;;;;;;;13.23;4.70;;;;;;;13.95;88.56;101866.97;4787434;30;20046;-61
2022/08/28 04:31:55;;;;;;;10.23;4.80;;;;;;;13.90;88.52;101864.38;4787503;30;20364;-61
2022/08/28 04:34:20;;;;;;;11.15;5.13;;;;;;;13.85;88.88;101874.06;4787386;30;20054;-61
2022/08/28 04:36:45;;;;;;;11.30;5.15;;;;;;;13.86;89.09;101880.19;4787236;30;20035;-59
2022/08/28 04:39:10;;;;;;;10.23;4.75;;;;;;;13.91;89.06;101875.78;4787259;30;20767;-62
2022/08/28 04:41:37;;;;;;;11.60;5.00;;;;;;;13.90;89.03;101879.28;4787279;30;20058;-64
2022/08/28 04:44:03;;;;;;;11.95;4.70;;;;;;;13.96;88.73;101881.88;4786970;30;20043;-61
2022/08/28 04:46:29;;;;;;;12.45;4.85;;;;;;;13.94;88.68;101878.38;4786699;30;20122;-62
2022/08/28 04:48:54;;;;;;;11.45;4.93;;;;;;;13.94;88.67;101888.91;4787016;30;20129;-60
2022/08/28 04:51:19;;;;;;;12.98;4.85;;;;;;;13.87;89.04;101888.09;4786638;30;20050;-62
2022/08/28 04:53:45;;;;;;;8.80;4.75;;;;;;;13.78;88.88;101882.06;4786681;30;20063;-61
2022/08/28 04:56:12;;;;;;;9.80;4.53;;;;;;;13.71;89.37;101880.38;4787049;30;20050;-62
2022/08/28 04:58:39;;;;;;;11.50;4.68;;;;;;;13.71;89.81;101891.75;4787134;30;20062;-60
2022/08/28 05:01:11;;;;;;;9.30;4.90;;;;;;;13.64;90.35;101889.22;4786891;30;20089;-62
2022/08/28 05:03:37;;;;;;;9.70;4.65;;;;;;;13.67;90.20;101887.44;4786802;30;20086;-60
2022/08/28 05:06:04;;;;;;;13.98;5.78;;;;;;;13.73;90.01;101895.25;4786650;30;20035;-61
2022/08/28 05:08:30;;;;;;;8.93;4.95;;;;;;;13.66;90.05;101890.94;4786530;30;20047;-61
2022/08/28 05:10:56;;;;;;;16.00;5.07;;;;;;;13.66;90.43;101898.84;4786801;30;20123;-63
2022/08/28 05:13:23;;;;;;;10.18;5.03;;;;;;;13.51;90.75;101899.81;4786751;30;20108;-62
2022/08/28 05:15:50;;;;;;;13.95;5.68;;;;;;;13.52;90.96;101909.47;4786600;30;20039;-60
2022/08/28 05:18:19;;;;;;;14.02;5.57;;;;;;;13.53;91.04;101910.34;4786601;30;20039;-62
2022/08/28 05:20:46;;;;;;;11.98;5.22;;;;;;;13.44;91.31;101903.41;4786737;30;20070;-61
2022/08/28 05:23:13;;;;;;;12.50;5.45;;;;;;;13.45;91.48;101904.28;4786672;30;20043;-60
2022/08/28 05:25:41;;;;;;;11.18;5.60;;;;;;;13.47;91.21;101906.03;4786585;30;20043;-60
2022/08/28 05:28:09;;;;;;;11.13;5.35;;;;;;;13.49;91.51;101913.91;4786376;30;20047;-62
2022/08/28 05:30:36;;;;;;;9.75;4.85;;;;;;;13.59;90.82;101913.78;4785897;30;20050;-61
2022/08/28 05:33:02;;;;;;;12.88;5.30;;;;;;;13.59;90.94;101919.06;4786489;30;20054;-60
2022/08/28 05:35:27;;;;;;;9.30;5.35;;;;;;;13.51;91.29;101923.50;4786514;30;20043;-61
2022/08/28 05:37:53;;;;;;;12.90;5.18;;;;;;;13.49;91.39;101920.03;4786484;30;20613;-63
2022/08/28 05:40:21;;;;;;;12.70;4.97;;;;;;;13.52;91.38;101927.88;4786630;30;20043;-63
2022/08/28 05:42:49;;;;;;;13.38;5.40;;;;;;;13.50;91.44;101915.66;4786465;30;20035;-60
2022/08/28 05:45:14;;;;;;;13.15;5.90;;;;;;;13.55;91.35;101914.69;4786188;30;20070;-60
2022/08/28 05:47:40;;;;;;;12.75;5.78;;;;;;;13.55;91.24;101917.34;4786179;30;20039;-62
2022/08/28 05:50:07;;;;;;;17.48;5.97;;;;;;;13.48;91.30;101923.53;4786170;30;20051;-60
2022/08/28 05:52:33;;;;;;;9.88;5.95;;;;;;;13.53;91.59;101920.84;4786396;30;20047;-61
2022/08/28 05:54:59;;;;;;;15.57;6.72;;;;;;;13.50;91.74;101921.78;4786277;30;20074;-60
2022/08/28 05:57:24;;;;;;;17.23;7.32;;;;;;;13.45;91.89;101926.19;4786374;30;20356;-63
2022/08/28 05:59:50;;;;;;;14.82;7.20;;;;;;;13.54;91.79;101920.84;4786135;30;20053;-61
2022/08/28 06:02:15;;;;;;;15.02;6.80;;;;;;;13.59;91.60;101932.22;4786141;30;20050;-62
2022/08/28 06:04:40;;;;;;;14.13;6.13;;;;;;;13.65;91.58;101922.53;4786255;30;20039;-60
2022/08/28 06:07:06;;;;;;;13.15;6.03;;;;;;;13.70;91.56;101928.59;4785993;30;20466;-60
2022/08/28 06:09:32;;;;;;;16.58;7.22;;;;;;;13.63;91.89;101925.16;4786414;30;20038;-64
2022/08/28 06:11:59;;;;;;;15.00;6.78;;;;;;;13.75;91.82;101943.47;4786254;30;20058;-59
2022/08/28 06:14:25;;;;;;;13.65;6.07;;;;;;;13.82;91.54;101945.16;4785978;30;20039;-62
2022/08/28 06:16:53;;;;;;;15.18;6.38;;;;;;;13.88;91.58;101944.22;4786055;30;20043;-61
2022/08/28 06:19:21;;;;;;;14.60;6.13;;;;;;;13.96;91.30;101947.66;4786185;30;20043;-60
2022/08/28 06:21:50;;;;;;;11.85;5.45;;;;;;;13.96;91.47;101945.03;4786007;30;20422;-60
2022/08/28 06:24:15;;;;;;;13.05;5.70;;;;;;;13.94;91.98;101938.91;4786182;30;20043;-62
2022/08/28 06:26:41;;;;;;;15.02;5.82;;;;;;;13.99;91.79;101926.59;4785906;30;20050;-60
2022/08/28 06:29:09;;;;;;;13.25;5.30;;;;;;;14.09;91.32;101938.75;4785697;30;20051;-61
2022/08/28 06:31:34;;;;;;;15.50;5.45;;;;;;;14.09;91.51;101943.13;4786062;30;20135;-60
2022/08/28 06:34:00;;;;;;;13.52;5.13;;;;;;;14.13;91.57;101944.84;4785949;30;20457;-62
2022/08/28 06:36:27;;;;;;;18.15;5.85;;;;;;;14.15;91.49;101940.47;4786096;30;20035;-63
2022/08/28 06:38:54;;;;;;;11.15;4.93;;;;;;;14.19;91.53;101948.31;4785960;30;20035;-60
2022/08/28 06:41:19;;;;;;;16.15;5.53;;;;;;;14.27;91.28;101951.72;4785910;30;20076;-59
2022/08/28 06:43:45;;;;;;;13.95;5.20;;;;;;;14.36;91.24;101957.78;4787184;29;20072;-60
2022/08/28 06:46:10;;;;;;;12.32;5.00;;;;;;;14.43;90.57;101954.22;4788895;30;20134;-60
2022/08/28 06:48:36;;;;;;;12.15;5.03;;;;;;;14.51;90.23;101960.28;4789066;30;20130;-62
2022/08/28 06:51:05;;;;;;;14.13;4.72;;;;;;;14.59;89.88;101958.41;4789164;30;20465;-60
2022/08/28 06:53:31;;;;;;;14.07;5.70;;;;;;;14.65;89.33;101952.19;4789007;30;20046;-60
2022/08/28 06:56:07;;;;;;;12.40;5.43;;;;;;;14.71;89.44;101960.03;4788986;30;20134;-61
2022/08/28 06:58:42;;;;;;;13.60;4.80;;;;;;;14.75;88.72;101962.59;4788684;30;20113;-60
2022/08/28 07:01:15;;;;;;;14.63;5.00;;;;;;;14.87;87.97;101962.44;4788566;30;20067;-60
2022/08/28 07:03:42;;;;;;;14.68;5.38;;;;;;;14.91;87.57;101961.50;4788708;30;20039;-61
2022/08/28 07:06:08;;;;;;;14.20;5.32;;;;;;;14.98;87.63;101949.13;4788877;30;20043;-61
2022/08/28 07:08:36;;;;;;;14.02;5.35;;;;;;;15.11;87.45;101955.06;4788603;30;20100;-59
2022/08/28 07:11:10;;;;;;;11.63;4.65;;;;;;;15.39;86.15;101952.91;4775370;30;20469;-58
2022/08/28 07:13:35;;;;;;;14.20;4.97;;;;;;;15.55;85.45;101946.50;4783032;30;20091;-60
2022/08/28 07:16:01;;;;;;;11.60;4.75;;;;;;;15.60;84.92;101948.19;4786798;30;20528;-59
2022/08/28 07:18:26;;;;;;;14.10;5.10;;;;;;;15.59;84.45;101951.72;4788243;30;20047;-61
2022/08/28 07:20:57;;;;;;;10.23;4.80;;;;;;;15.68;84.13;101955.09;4782577;30;20085;-61
2022/08/28 07:23:23;;;;;;;15.00;4.97;;;;;;;15.69;84.14;101951.56;4785143;30;20067;-60
2022/08/28 07:25:48;;;;;;;8.68;4.35;;;;;;;15.73;83.90;101964.72;4788503;30;20097;-62
2022/08/28 07:28:14;;;;;;;16.20;4.55;;;;;;;15.80;83.84;101958.41;4788126;30;20042;-61
2022/08/28 07:30:39;;;;;;;14.55;5.00;;;;;;;15.86;83.62;101955.66;4788435;30;20096;-60
2022/08/28 07:33:04;;;;;;;10.93;4.10;;;;;;;15.84;82.90;101948.66;4788468;30;20469;-62
2022/08/28 07:35:30;;;;;;;13.07;4.38;;;;;;;15.98;82.33;101966.00;4787705;30;20050;-61
2022/08/28 07:37:56;;;;;;;12.55;3.53;;;;;;;16.04;81.79;101965.03;4787921;30;20430;-55
2022/08/28 07:40:22;;;;;;;10.15;3.45;;;;;;;16.10;80.77;101967.56;4788139;30;20092;-62
2022/08/28 07:45:34;;;;;;;9.98;3.20;;;;;;;16.20;79.11;101965.63;4779318;30;20053;-60
2022/08/28 07:48:02;;;;;;;9.20;3.15;;;;;;;16.30;79.31;101978.59;4769915;30;20453;-62
2022/08/28 07:50:28;;;;;;;7.00;2.80;;;;;;;16.33;77.42;101970.63;4769557;30;20517;-61
2022/08/28 07:52:53;;;;;;;8.80;2.95;;;;;;;16.39;77.39;101980.22;4770187;30;20110;-61
2022/08/28 07:55:19;;;;;;;11.52;3.00;;;;;;;16.40;78.32;101981.97;4769822;30;20066;-62
2022/08/28 07:57:44;;;;;;;9.68;2.83;;;;;;;16.51;78.33;101979.97;4769966;30;20114;-60
2022/08/28 08:00:12;;;;;;;7.85;2.60;;;;;;;16.64;75.71;101983.25;4769893;30;20040;-60
2022/08/28 08:02:37;;;;;;;9.73;2.80;;;;;;;16.63;76.03;101982.41;4769828;30;20079;-61
2022/08/28 08:05:04;;;;;;;11.75;2.72;;;;;;;16.72;75.81;101988.41;4769861;30;20466;-60
2022/08/28 08:07:29;;;;;;;7.03;2.20;;;;;;;16.85;74.71;101989.88;4769865;30;20036;-60
2022/08/28 08:09:54;;;;;;;9.07;2.58;;;;;;;16.97;73.14;101979.91;4769555;30;20476;-60
2022/08/28 08:12:20;;;;;;;10.20;2.60;;;;;;;17.07;73.30;101983.25;4769940;30;20122;-61
2022/08/28 08:14:47;;;;;;;9.63;2.30;;;;;;;17.16;72.69;101982.16;4769683;30;20044;-63
2022/08/28 08:17:13;;;;;;;8.02;2.13;;;;;;;17.21;71.13;101988.22;4773452;30;20062;-59
2022/08/28 08:19:38;;;;;;;7.80;2.40;;;;;;;17.22;71.34;101989.97;4785380;30;20039;-62
2022/08/28 08:22:04;;;;;;;10.00;2.50;;;;;;;17.22;70.07;101989.97;4784273;29;20043;-61
2022/08/28 08:24:29;;;;;;;8.75;2.33;;;;;;;17.20;69.68;101994.41;4787011;30;20043;-59
2022/08/28 08:26:59;;;;;;;8.93;2.22;;;;;;;17.16;70.52;101998.03;4784855;30;20143;-60
2022/08/28 08:29:27;;;;;;;12.13;2.20;;;;;;;17.17;69.43;102000.63;4773669;30;20090;-60
2022/08/28 08:31:57;;;;;;;10.73;2.47;;;;;;;17.20;70.00;102002.34;4785492;30;20047;-60
2022/08/28 08:34:24;;;;;;;9.35;2.53;;;;;;;17.15;69.51;102006.88;4786284;30;20104;-60
2022/08/28 08:36:50;;;;;;;7.28;2.30;;;;;;;17.14;69.73;102002.50;4784772;29;20126;-61
2022/08/28 08:39:15;;;;;;;7.57;1.83;;;;;;;17.17;70.59;102002.41;4785476;30;20567;-60
2022/08/28 08:41:46;;;;;;;8.00;2.25;;;;;;;17.43;70.19;102000.06;4785617;30;20039;-62
2022/08/28 08:44:26;;;;;;;6.90;2.15;;;;;;;17.73;68.99;102001.13;4786483;30;20031;-61
2022/08/28 08:46:59;;;;;;;8.15;1.80;;;;;;;18.07;67.92;101995.84;4769067;30;20042;-61
2022/08/28 08:49:30;;;;;;;6.82;2.00;;;;;;;18.19;67.29;101994.66;4784574;30;20039;-62
2022/08/28 08:52:15;;;;;;;8.05;2.22;;;;;;;18.21;67.47;101998.13;4785783;30;20043;-60
2022/08/28 08:54:43;;;;;;;7.80;2.00;;;;;;;18.32;65.62;101986.34;4798993;29;20059;-59
2022/08/28 08:57:13;;;;;;;9.48;2.13;;;;;;;18.40;65.22;101970.22;4804867;29;20050;-61
2022/08/28 08:59:39;;;;;;;7.57;2.05;;;;;;;18.74;65.14;101988.72;4786911;29;20450;-61
2022/08/28 09:02:13;;;;;;;6.40;2.08;;;;;;;19.27;62.24;101987.09;4786024;30;20043;-59
2022/08/28 09:04:53;;;;;;;8.07;1.63;;;;;;;19.92;60.19;101980.59;4786108;30;20058;-63
2022/08/28 09:07:28;;;;;;;9.52;1.90;;;;;;;20.49;59.20;101980.38;4788017;29;20062;-63
2022/08/28 09:09:56;;;;;;;4.65;1.98;;;;;;;20.32;56.43;101980.94;4791460;29;20511;-64
2022/08/28 09:12:28;;;;;;;7.50;2.05;;;;;;;19.90;58.69;101983.31;4789018;29;20104;-61
2022/08/28 09:15:03;;;;;;;7.18;1.92;;;;;;;19.50;59.91;101989.06;4793030;29;20074;-61
2022/08/28 09:17:36;;;;;;;5.30;1.85;;;;;;;19.59;60.83;101990.53;4795723;29;20117;-63
2022/08/28 09:20:08;;;;;;;4.50;1.70;;;;;;;19.88;59.45;101981.63;4791418;29;20851;-62
2022/08/28 09:22:33;;;;;;;;;;;;;;;20.02;61.31;101985.56;4796255;29;20112;-60
2022/08/28 09:24:59;;;;;;;5.30;1.60;;;;;;;20.33;57.64;101984.47;4793492;29;19928;-60
2022/08/28 09:27:30;;;;;;;10.65;2.08;;;;;;;20.60;56.67;101985.31;4791622;29;20408;-60
2022/08/28 09:30:08;;;;;;;6.07;2.03;;;;;;;20.68;56.75;101985.88;4777818;29;20773;-59
2022/08/28 09:32:45;;;;;;;7.95;1.92;;;;;;;20.97;55.45;101985.63;4795699;29;20042;-59
2022/08/28 09:35:23;;;;;;;5.30;1.50;;;;;;;21.33;54.03;101969.16;4790509;29;20112;-60
2022/08/28 09:37:50;;;;;;;6.82;1.63;;;;;;;21.27;52.94;101988.06;4793070;29;20139;-60
2022/08/28 09:40:17;;;;;;;5.70;2.10;;;;;;;21.30;53.18;101979.97;4793383;29;20039;-60
2022/08/28 09:45:50;;;;;;;9.10;2.20;;;;;;;21.56;52.91;101978.91;4793753;29;20058;-60
2022/08/28 09:48:29;;;;;;;6.25;1.65;;;;;;;21.72;53.97;101980.00;4793989;29;20039;-59
2022/08/28 09:51:05;;;;;;;5.45;1.73;;;;;;;22.05;52.10;101967.94;4793868;29;20081;-59
2022/08/28 09:53:40;;;;;;;8.80;1.90;;;;;;;22.11;51.11;101985.47;4793545;29;20523;-60
2022/08/28 09:56:27;;;;;;;6.63;1.80;;;;;;;21.88;51.27;101975.75;4793778;29;20053;-61
2022/08/28 09:58:58;;;;;;;4.78;1.40;;;;;;;21.31;49.37;101947.94;4788230;29;20035;-59
2022/08/28 10:01:45;;;;;;;9.43;1.85;;;;;;;21.12;51.64;101987.72;4786587;30;20494;-59
2022/08/28 10:04:16;;;;;;;5.55;1.60;;;;;;;20.86;52.59;101993.16;4786271;30;20035;-60
2022/08/28 10:06:50;;;;;;;6.40;2.25;;;;;;;21.01;51.92;101987.25;4786227;30;20408;-58
2022/08/28 10:09:34;;;;;;;4.43;1.50;;;;;;;21.29;51.57;101991.56;4786151;30;20039;-57
2022/08/28 10:12:28;;;;;;;5.82;1.60;;;;;;;21.33;51.18;101988.69;4786286;30;20125;-57
2022/08/28 10:14:54;;;;;;;4.35;1.40;;;;;;;21.53;49.24;101980.75;4786101;30;20043;-57
2022/08/28 10:17:26;;;;;;;5.77;1.50;;;;;;;21.91;49.53;101975.63;4786237;29;20043;-58
2022/08/28 10:20:12;;;;;;;6.18;1.48;;;;;;;22.29;47.43;101982.00;4789304;30;20122;-59
2022/08/28 10:22:43;;;;;;;4.22;1.67;;;;;;;22.74;46.94;101978.19;4789396;30;20073;-58
2022/08/28 10:25:14;;;;;;;3.70;1.50;;;;;;;22.85;46.40;101975.94;4789567;30;20045;-58
2022/08/28 10:28:00;;;;;;;5.50;1.70;;;;;;;23.25;47.21;101975.75;4789393;30;20043;-57
2022/08/28 10:30:29;;;;;;;4.55;1.90;;;;;;;23.29;44.80;101975.63;4789126;30;20045;-58
2022/08/28 10:33:00;;;;;;;7.45;1.60;;;;;;;23.06;45.76;101985.59;4789365;30;20462;-58
2022/08/28 10:35:52;;;;;;;4.38;1.65;;;;;;;22.63;47.19;101975.16;4789160;30;20054;-57
2022/08/28 10:38:17;;;;;;;4.00;1.75;;;;;;;21.87;48.29;101982.88;4789100;30;20799;-59
2022/08/28 10:41:04;;;;;;;6.55;1.88;;;;;;;21.49;50.17;101988.94;4789388;30;20038;-59
2022/08/28 10:43:38;;;;;;;4.72;1.45;;;;;;;21.23;50.29;101986.47;4789356;30;20062;-59
2022/08/28 10:46:25;;;;;;;3.17;1.60;;;;;;;21.21;49.61;101986.50;4789131;30;20039;-58
2022/08/28 10:48:58;;;;;;;3.85;1.67;;;;;;;21.37;49.43;101976.97;4776068;30;20419;-59
2022/08/28 10:51:34;;;;;;;6.35;1.50;;;;;;;21.77;49.16;101970.03;4789093;30;20043;-58
2022/08/28 10:54:10;;;;;;;4.00;1.50;;;;;;;22.15;47.87;101973.75;4788955;30;20146;-60
2022/08/28 10:56:42;;;;;;;5.38;1.90;;;;;;;22.46;46.79;101971.44;4789058;30;20050;-59
2022/08/28 10:59:08;;;;;;;6.43;1.50;;;;;;;22.91;45.75;101975.63;4789086;30;20130;-59
2022/08/28 11:01:37;;;;;;;5.10;1.67;;;;;;;23.16;45.02;101975.34;4789169;30;20118;-58
2022/08/28 11:04:14;;;;;;;6.38;1.60;;;;;;;23.12;44.31;101973.75;4788791;30;20129;-60
2022/08/28 11:06:53;;;;;;;5.15;1.40;;;;;;;23.31;45.48;101973.75;4788547;30;20385;-56
2022/08/28 11:09:44;;;;;;;4.50;1.50;;;;;;;22.94;45.82;101985.31;4788592;30;20043;-63
2022/08/28 11:12:15;;;;;;;5.15;1.42;;;;;;;22.31;46.12;101981.94;4788699;30;20031;-59
2022/08/28 11:14:44;;;;;;;5.25;1.35;;;;;;;21.74;47.55;101988.81;4788737;30;20050;-61
2022/08/28 11:17:37;;;;;;;3.60;1.65;;;;;;;21.75;48.81;101985.22;4798336;29;20042;-60
2022/08/28 11:20:16;;;;;;;4.60;1.50;;;;;;;21.64;48.62;101988.31;4797651;29;20049;-62
2022/08/28 11:22:44;;;;;;;4.32;1.48;;;;;;;21.86;48.69;101975.81;4788710;30;20050;-60
2022/08/28 11:25:42;;;;;;;3.40;1.48;;;;;;;22.14;47.57;101977.34;4800071;29;20045;-61
2022/08/28 11:28:21;;;;;;;6.53;1.50;;;;;;;22.32;46.57;101975.69;4801018;29;20063;-60
2022/08/28 11:30:48;;;;;;;3.58;1.63;;;;;;;22.72;45.06;101982.72;4804410;29;20107;-60
2022/08/28 11:33:38;;;;;;;4.47;1.63;;;;;;;22.95;45.13;101981.69;4805391;29;20103;-60
2022/08/28 11:36:19;;;;;;;5.68;1.50;;;;;;;23.23;43.98;101956.25;4806111;29;20076;-60
2022/08/28 11:38:44;;;;;;;4.65;1.58;;;;;;;23.78;42.10;101971.41;4804705;29;20353;-60